createdAt,value
2017-08-31T00:00:25.648Z,98.19
2017-08-31T00:01:25.845Z,98.29
2017-08-31T00:02:25.372Z,98.96
2017-08-31T00:03:25.659Z,98.86
2017-08-31T00:04:25.437Z,98.77
2017-08-31T00:05:25.365Z,98.86
2017-08-31T00:06:25.690Z,98.86
2017-08-31T00:07:25.002Z,98.77
2017-08-31T00:08:24.979Z,98.19
2017-08-31T00:09:24.962Z,98.19
2017-08-31T00:10:24.941Z,98
2017-08-31T00:11:24.927Z,98.19
2017-08-31T00:12:24.902Z,98.1
2017-08-31T00:13:24.881Z,98
2017-08-31T00:14:24.860Z,98.1
2017-08-31T00:15:24.843Z,98.48
2017-08-31T00:16:24.826Z,98.58
2017-08-31T00:17:24.804Z,98.29
2017-08-31T00:18:24.791Z,98.19
2017-08-31T00:19:24.761Z,98.1
2017-08-31T00:20:24.742Z,98.1
2017-08-31T00:21:25.450Z,98.1
2017-08-31T00:22:25.325Z,98
2017-08-31T00:23:25.205Z,98.1
2017-08-31T00:24:25.025Z,98.1
2017-08-31T00:25:25.347Z,98.1
2017-08-31T00:26:25.263Z,98.1
2017-08-31T00:27:25.056Z,98.48
2017-08-31T00:28:24.989Z,98.1
2017-08-31T00:29:25.318Z,98.48
2017-08-31T00:30:25.415Z,98.1
2017-08-31T00:31:25.114Z,98.1
2017-08-31T00:32:25.019Z,98.58
2017-08-31T00:33:24.540Z,98.39
2017-08-31T00:34:25.161Z,98.48
2017-08-31T00:35:24.712Z,98.39
2017-08-31T00:36:24.960Z,98.39
2017-08-31T00:37:24.405Z,98.48
2017-08-31T00:38:24.931Z,98.29
2017-08-31T00:39:24.546Z,98.29
2017-08-31T00:40:24.629Z,98.39
2017-08-31T00:41:25.020Z,98.39
2017-08-31T00:42:24.742Z,98.39
2017-08-31T00:43:24.338Z,98.39
2017-08-31T00:44:24.061Z,98.39
2017-08-31T00:45:24.923Z,98.68
2017-08-31T00:46:24.600Z,98.68
2017-08-31T00:47:24.741Z,98.68
2017-08-31T00:48:24.768Z,98.29
2017-08-31T00:49:24.834Z,98.68
2017-08-31T00:50:24.825Z,98.48
2017-08-31T00:51:24.924Z,98.48
2017-08-31T00:52:24.821Z,98.68
2017-08-31T00:53:24.402Z,98.58
2017-08-31T00:54:24.673Z,98.48
2017-08-31T00:55:24.798Z,98.19
2017-08-31T00:56:24.664Z,98.48
2017-08-31T00:57:24.774Z,98.48
2017-08-31T00:58:24.671Z,98.19
2017-08-31T00:59:24.540Z,98.48
2017-08-31T01:00:24.696Z,98.58
2017-08-31T01:01:24.547Z,98.68
2017-08-31T01:02:24.516Z,98.58
2017-08-31T01:03:24.170Z,98.68
2017-08-31T01:04:24.108Z,98.58
2017-08-31T01:05:24.715Z,98.48
2017-08-31T01:06:24.664Z,98.48
2017-08-31T01:07:24.540Z,98.58
2017-08-31T01:08:24.259Z,98.48
2017-08-31T01:09:24.515Z,98.48
2017-08-31T01:10:24.510Z,98.39
2017-08-31T01:11:24.250Z,98.48
2017-08-31T01:12:23.717Z,98
2017-08-31T01:13:24.511Z,98.48
2017-08-31T01:14:24.252Z,98.48
2017-08-31T01:15:23.648Z,98.68
2017-08-31T01:16:23.628Z,98.29
2017-08-31T01:17:23.602Z,98.58
2017-08-31T01:18:23.589Z,98.58
2017-08-31T01:19:23.563Z,98.58
2017-08-31T01:20:23.546Z,98.58
2017-08-31T01:21:23.524Z,98.68
2017-08-31T01:22:23.504Z,98.48
2017-08-31T01:23:23.484Z,98.48
2017-08-31T01:24:23.465Z,98.68
2017-08-31T01:25:23.441Z,98.68
2017-08-31T01:26:23.426Z,98.48
2017-08-31T01:27:23.411Z,98.48
2017-08-31T01:28:23.384Z,98.48
2017-08-31T01:29:23.055Z,98.48
2017-08-31T01:30:23.347Z,98.19
2017-08-31T01:31:23.016Z,98.39
2017-08-31T01:32:23.307Z,97.91
2017-08-31T01:33:23.286Z,98.19
2017-08-31T01:34:23.265Z,98.1
2017-08-31T01:35:23.250Z,98.1
2017-08-31T01:36:23.226Z,97.91
2017-08-31T01:37:23.204Z,98.39
2017-08-31T01:38:23.184Z,98.39
2017-08-31T01:39:23.164Z,98.14
2017-08-31T01:40:23.145Z,98.05
2017-08-31T01:41:23.124Z,97.96
2017-08-31T01:42:23.111Z,98.24
2017-08-31T01:43:23.136Z,98.24
2017-08-31T01:44:23.070Z,98.14
2017-08-31T01:45:23.051Z,98.24
2017-08-31T01:46:23.024Z,97.96
2017-08-31T01:47:23.005Z,98.05
2017-08-31T01:48:22.983Z,98.05
2017-08-31T01:49:23.018Z,98.14
2017-08-31T01:50:22.946Z,98.34
2017-08-31T01:51:22.924Z,98.24
2017-08-31T01:52:22.904Z,98.05
2017-08-31T01:53:22.884Z,97.86
2017-08-31T01:54:22.920Z,98.05
2017-08-31T01:55:22.535Z,98.14
2017-08-31T01:56:22.826Z,97.86
2017-08-31T01:57:22.499Z,98.24
2017-08-31T01:58:22.791Z,98.24
2017-08-31T01:59:22.458Z,98.34
2017-08-31T02:00:22.751Z,98.14
2017-08-31T02:01:22.724Z,98.63
2017-08-31T02:02:22.755Z,98.43
2017-08-31T02:03:22.682Z,98.43
2017-08-31T02:04:22.672Z,98.34
2017-08-31T02:05:22.647Z,98.43
2017-08-31T02:06:22.626Z,98.24
2017-08-31T02:07:22.610Z,98.43
2017-08-31T02:08:22.587Z,98.58
2017-08-31T02:09:22.566Z,97.66
2017-08-31T02:10:22.545Z,98.63
2017-08-31T02:11:22.526Z,98.43
2017-08-31T02:12:22.506Z,97.76
2017-08-31T02:13:22.482Z,97.91
2017-08-31T02:14:22.466Z,97.66
2017-08-31T02:15:22.442Z,97.91
2017-08-31T02:16:22.423Z,97.81
2017-08-31T02:17:22.406Z,98
2017-08-31T02:18:22.383Z,97.71
2017-08-31T02:19:22.514Z,97.81
2017-08-31T02:20:22.342Z,98.19
2017-08-31T02:21:22.379Z,98.19
2017-08-31T02:22:22.303Z,98.38
2017-08-31T02:23:22.283Z,98.38
2017-08-31T02:24:22.264Z,98.48
2017-08-31T02:25:22.236Z,98.29
2017-08-31T02:26:22.227Z,97.81
2017-08-31T02:27:22.202Z,97.52
2017-08-31T02:28:22.177Z,98.19
2017-08-31T02:29:22.163Z,97.81
2017-08-31T02:30:22.138Z,97.91
2017-08-31T02:31:22.123Z,98
2017-08-31T02:32:22.103Z,98.29
2017-08-31T02:33:22.077Z,97.86
2017-08-31T02:34:22.064Z,97.95
2017-08-31T02:35:22.038Z,98.24
2017-08-31T02:36:22.023Z,98.14
2017-08-31T02:37:22.052Z,98.24
2017-08-31T02:38:21.979Z,98.24
2017-08-31T02:39:21.961Z,98.05
2017-08-31T02:40:21.934Z,98.33
2017-08-31T02:41:21.918Z,98.14
2017-08-31T02:42:21.944Z,98.24
2017-08-31T02:43:21.873Z,98.14
2017-08-31T02:44:21.854Z,98.14
2017-08-31T02:45:21.837Z,98.14
2017-08-31T02:46:21.864Z,98.24
2017-08-31T02:47:21.484Z,98.53
2017-08-31T02:48:21.780Z,98.43
2017-08-31T02:49:21.755Z,98.33
2017-08-31T02:50:21.734Z,98.05
2017-08-31T02:51:21.711Z,98.33
2017-08-31T02:52:21.692Z,97.95
2017-08-31T02:53:21.675Z,98.43
2017-08-31T02:54:21.654Z,98.33
2017-08-31T02:55:21.636Z,98.33
2017-08-31T02:56:21.299Z,98.33
2017-08-31T02:57:21.586Z,98.33
2017-08-31T02:58:21.570Z,98.24
2017-08-31T02:59:21.549Z,97.95
2017-08-31T03:00:21.526Z,98.24
2017-08-31T03:01:21.555Z,98.24
2017-08-31T03:02:21.485Z,98.24
2017-08-31T03:03:21.466Z,98.14
2017-08-31T03:04:21.445Z,97.66
2017-08-31T03:05:21.424Z,98.43
2017-08-31T03:06:21.406Z,98.43
2017-08-31T03:07:21.383Z,98.1
2017-08-31T03:08:21.370Z,98.57
2017-08-31T03:09:21.347Z,97.95
2017-08-31T03:10:21.328Z,98
2017-08-31T03:11:21.301Z,98.19
2017-08-31T03:12:21.319Z,98.48
2017-08-31T03:13:21.270Z,98.19
2017-08-31T03:14:21.239Z,98.57
2017-08-31T03:15:21.267Z,98.57
2017-08-31T03:16:21.196Z,98.57
2017-08-31T03:17:21.187Z,98.67
2017-08-31T03:18:20.854Z,98.1
2017-08-31T03:19:21.140Z,98.38
2017-08-31T03:20:21.124Z,98.67
2017-08-31T03:21:21.096Z,98.86
2017-08-31T03:22:21.077Z,98.52
2017-08-31T03:23:21.061Z,98.52
2017-08-31T03:24:21.035Z,98.43
2017-08-31T03:25:21.013Z,98.43
2017-08-31T03:26:20.996Z,98.72
2017-08-31T03:27:21.073Z,98.62
2017-08-31T03:28:20.952Z,98.72
2017-08-31T03:29:20.931Z,98.81
2017-08-31T03:30:20.928Z,98.43
2017-08-31T03:31:20.886Z,98.43
2017-08-31T03:32:20.560Z,98.52
2017-08-31T03:33:20.852Z,98.43
2017-08-31T03:34:20.839Z,98.62
2017-08-31T03:35:20.808Z,98.62
2017-08-31T03:36:20.788Z,98.81
2017-08-31T03:37:20.765Z,98.52
2017-08-31T03:38:20.744Z,98.72
2017-08-31T03:39:20.721Z,98.81
2017-08-31T03:40:20.701Z,98.81
2017-08-31T03:41:20.732Z,98.52
2017-08-31T03:42:20.667Z,98.62
2017-08-31T03:43:20.644Z,98.81
2017-08-31T03:44:20.619Z,98.81
2017-08-31T03:45:20.600Z,98.33
2017-08-31T03:46:20.582Z,98.24
2017-08-31T03:47:20.557Z,98.24
2017-08-31T03:48:20.537Z,98.91
2017-08-31T03:49:20.206Z,98.91
2017-08-31T03:50:20.493Z,98.57
2017-08-31T03:51:20.478Z,98.57
2017-08-31T03:52:20.451Z,98.86
2017-08-31T03:53:20.432Z,98.72
2017-08-31T03:54:20.412Z,98.76
2017-08-31T03:55:20.445Z,98.86
2017-08-31T03:56:20.399Z,98.28
2017-08-31T03:57:20.357Z,98.28
2017-08-31T03:58:20.329Z,98.28
2017-08-31T03:59:20.304Z,98.76
2017-08-31T04:00:20.307Z,98.96
2017-08-31T04:01:20.264Z,98.76
2017-08-31T04:02:20.248Z,98.76
2017-08-31T04:03:20.224Z,99.01
2017-08-31T04:04:20.240Z,98.76
2017-08-31T04:05:20.210Z,98.76
2017-08-31T04:06:20.162Z,98.91
2017-08-31T04:07:20.148Z,98.72
2017-08-31T04:08:20.119Z,98.91
2017-08-31T04:09:20.098Z,99.01
2017-08-31T04:10:20.085Z,98.96
2017-08-31T04:11:20.052Z,98.67
2017-08-31T04:12:20.034Z,99.05
2017-08-31T04:13:20.017Z,98.33
2017-08-31T04:14:20.002Z,98.57
2017-08-31T04:15:19.715Z,98.67
2017-08-31T04:16:19.963Z,98.72
2017-08-31T04:17:19.940Z,98.62
2017-08-31T04:18:19.911Z,99.01
2017-08-31T04:19:19.590Z,98.81
2017-08-31T04:20:19.873Z,98.62
2017-08-31T04:21:19.898Z,98.62
2017-08-31T04:22:19.829Z,98.91
2017-08-31T04:23:19.855Z,98.43
2017-08-31T04:24:19.788Z,98.57
2017-08-31T04:25:19.764Z,98.81
2017-08-31T04:26:19.745Z,98.96
2017-08-31T04:27:19.422Z,98.86
2017-08-31T04:28:19.703Z,99.05
2017-08-31T04:29:19.690Z,99.05
2017-08-31T04:30:19.664Z,98.96
2017-08-31T04:31:19.644Z,98.96
2017-08-31T04:32:19.624Z,98.96
2017-08-31T04:33:19.596Z,98.76
2017-08-31T04:34:19.580Z,98.57
2017-08-31T04:35:19.556Z,98.76
2017-08-31T04:36:19.539Z,98.67
2017-08-31T04:37:19.514Z,98.57
2017-08-31T04:38:19.493Z,98.76
2017-08-31T04:39:19.476Z,98.86
2017-08-31T04:40:19.448Z,98.19
2017-08-31T04:41:19.435Z,98.67
2017-08-31T04:42:19.420Z,98.57
2017-08-31T04:43:19.389Z,98.76
2017-08-31T04:44:19.376Z,98.67
2017-08-31T04:45:19.354Z,98.28
2017-08-31T04:46:19.329Z,98.57
2017-08-31T04:47:19.009Z,98.67
2017-08-31T04:48:18.984Z,98.57
2017-08-31T04:49:19.317Z,98.76
2017-08-31T04:50:19.252Z,98.67
2017-08-31T04:51:19.237Z,98.96
2017-08-31T04:52:19.217Z,98.67
2017-08-31T04:53:19.195Z,98.47
2017-08-31T04:54:18.857Z,98.96
2017-08-31T04:55:18.839Z,98.76
2017-08-31T04:56:18.837Z,98.76
2017-08-31T04:57:18.792Z,98.76
2017-08-31T04:58:19.082Z,98.76
2017-08-31T04:59:18.755Z,98.76
2017-08-31T05:00:18.734Z,98.67
2017-08-31T05:01:18.761Z,98.67
2017-08-31T05:02:18.994Z,98.19
2017-08-31T05:03:18.675Z,98.67
2017-08-31T05:04:18.953Z,98.86
2017-08-31T05:05:18.656Z,98.57
2017-08-31T05:06:18.607Z,98.57
2017-08-31T05:07:18.895Z,98.86
2017-08-31T05:08:18.868Z,99.24
2017-08-31T05:09:18.543Z,98.38
2017-08-31T05:10:18.522Z,98.57
2017-08-31T05:11:18.810Z,98.76
2017-08-31T05:12:18.487Z,98.67
2017-08-31T05:13:18.461Z,98.67
2017-08-31T05:14:18.747Z,98.67
2017-08-31T05:15:18.471Z,98.86
2017-08-31T05:16:18.396Z,98.57
2017-08-31T05:17:18.680Z,98.57
2017-08-31T05:18:18.362Z,98.19
2017-08-31T05:19:18.641Z,98.67
2017-08-31T05:20:18.315Z,98.67
2017-08-31T05:21:18.301Z,98.57
2017-08-31T05:22:18.283Z,98.57
2017-08-31T05:23:18.304Z,98.67
2017-08-31T05:24:18.231Z,98.1
2017-08-31T05:25:18.262Z,98.96
2017-08-31T05:26:18.187Z,98.76
2017-08-31T05:27:18.171Z,98.47
2017-08-31T05:28:18.454Z,98.76
2017-08-31T05:29:18.144Z,98.96
2017-08-31T05:30:18.410Z,98.96
2017-08-31T05:31:18.086Z,98.96
2017-08-31T05:32:18.371Z,99.15
2017-08-31T05:33:18.051Z,98.86
2017-08-31T05:34:18.024Z,98.96
2017-08-31T05:35:18.011Z,98.96
2017-08-31T05:36:18.290Z,99.05
2017-08-31T05:37:18.269Z,98.96
2017-08-31T05:38:17.948Z,98.67
2017-08-31T05:39:17.921Z,98.47
2017-08-31T05:40:18.200Z,99.24
2017-08-31T05:41:17.927Z,99.15
2017-08-31T05:42:18.166Z,98.76
2017-08-31T05:43:18.139Z,98.86
2017-08-31T05:44:17.816Z,98.76
2017-08-31T05:45:18.102Z,98.86
2017-08-31T05:46:17.774Z,99.05
2017-08-31T05:47:17.746Z,98.76
2017-08-31T05:48:18.039Z,98.71
2017-08-31T05:49:18.010Z,98.38
2017-08-31T05:50:17.997Z,98.67
2017-08-31T05:51:17.974Z,98.67
2017-08-31T05:52:17.950Z,98.57
2017-08-31T05:53:17.933Z,98.38
2017-08-31T05:54:17.908Z,98.76
2017-08-31T05:55:17.892Z,98.86
2017-08-31T05:56:17.866Z,98.76
2017-08-31T05:57:17.844Z,98.57
2017-08-31T05:58:17.518Z,99.19
2017-08-31T05:59:17.806Z,99.38
2017-08-31T06:00:17.783Z,99.63
2017-08-31T06:01:17.762Z,99.1
2017-08-31T06:02:17.744Z,99.19
2017-08-31T06:03:17.719Z,98.86
2017-08-31T06:04:17.702Z,99.29
2017-08-31T06:05:17.676Z,99
2017-08-31T06:06:17.657Z,99.19
2017-08-31T06:07:17.634Z,99.19
2017-08-31T06:08:17.618Z,99.1
2017-08-31T06:09:17.597Z,99.19
2017-08-31T06:10:17.572Z,99.58
2017-08-31T06:11:17.564Z,99.58
2017-08-31T06:12:17.276Z,99.67
2017-08-31T06:13:17.516Z,99.58
2017-08-31T06:14:17.487Z,99.48
2017-08-31T06:15:17.477Z,99.19
2017-08-31T06:16:17.482Z,99.48
2017-08-31T06:17:17.428Z,99.29
2017-08-31T06:18:17.495Z,99.58
2017-08-31T06:19:17.387Z,99.29
2017-08-31T06:20:17.373Z,99.99
2017-08-31T06:21:17.349Z,99.87
2017-08-31T06:22:17.319Z,99.99
2017-08-31T06:23:17.302Z,99.99
2017-08-31T06:24:17.279Z,99.99
2017-08-31T06:25:17.265Z,99.48
2017-08-31T06:26:17.247Z,99.48
2017-08-31T06:27:17.218Z,99.67
2017-08-31T06:28:17.205Z,99.87
2017-08-31T06:29:17.173Z,99.87
2017-08-31T06:30:16.901Z,99.87
2017-08-31T06:31:17.133Z,99.87
2017-08-31T06:32:17.114Z,99.99
2017-08-31T06:33:17.092Z,99.96
2017-08-31T06:34:17.066Z,99.77
2017-08-31T06:35:17.046Z,99.77
2017-08-31T06:36:17.029Z,99.99
2017-08-31T06:37:17.062Z,99.99
2017-08-31T06:38:16.986Z,99.58
2017-08-31T06:39:16.961Z,99.99
2017-08-31T06:40:16.940Z,99.99
2017-08-31T06:41:16.921Z,99.96
2017-08-31T06:42:16.905Z,99.99
2017-08-31T06:43:16.876Z,99.99
2017-08-31T06:44:16.859Z,99.99
2017-08-31T06:45:16.835Z,99.99
2017-08-31T06:46:16.814Z,99.99
2017-08-31T06:47:16.791Z,99.99
2017-08-31T06:48:16.770Z,99.99
2017-08-31T06:49:16.791Z,99.99
2017-08-31T06:50:16.729Z,99.87
2017-08-31T06:51:16.707Z,99.99
2017-08-31T06:52:16.688Z,99.99
2017-08-31T06:53:16.666Z,99.87
2017-08-31T06:54:16.339Z,99.99
2017-08-31T06:55:16.621Z,99.99
2017-08-31T06:56:16.603Z,99.99
2017-08-31T06:57:16.584Z,99.99
2017-08-31T06:58:16.567Z,99.96
2017-08-31T06:59:16.543Z,99.99
2017-08-31T07:00:16.522Z,99.99
2017-08-31T07:01:16.497Z,99.99
2017-08-31T07:02:16.169Z,99.99
2017-08-31T07:03:16.454Z,99.99
2017-08-31T07:04:16.435Z,99.99
2017-08-31T07:05:16.414Z,99.99
2017-08-31T07:06:16.392Z,99.99
2017-08-31T07:07:16.369Z,99.99
2017-08-31T07:08:16.348Z,99.99
2017-08-31T07:09:16.333Z,99.99
2017-08-31T07:10:16.314Z,99.99
2017-08-31T07:11:16.283Z,99.99
2017-08-31T07:13:16.245Z,99.99
2017-08-31T07:14:16.221Z,99.99
2017-08-31T07:15:16.199Z,99.99
2017-08-31T07:16:16.182Z,99.99
2017-08-31T07:17:15.853Z,99.99
2017-08-31T07:18:16.131Z,99.99
2017-08-31T07:19:16.114Z,99.99
2017-08-31T07:20:16.098Z,99.99
2017-08-31T07:21:16.082Z,99.99
2017-08-31T07:22:16.053Z,99.99
2017-08-31T07:23:16.034Z,99.99
2017-08-31T07:24:16.015Z,99.99
2017-08-31T07:25:15.988Z,99.99
2017-08-31T07:26:15.968Z,99.99
2017-08-31T07:27:15.947Z,99.99
2017-08-31T07:28:15.928Z,99.99
2017-08-31T07:29:15.958Z,99.99
2017-08-31T07:30:15.579Z,99.99
2017-08-31T07:31:15.873Z,99.99
2017-08-31T07:32:15.843Z,99.99
2017-08-31T07:33:15.822Z,99.99
2017-08-31T07:34:15.809Z,99.99
2017-08-31T07:35:15.777Z,99.99
2017-08-31T07:36:15.762Z,99.99
2017-08-31T07:37:15.738Z,99.99
2017-08-31T07:38:15.733Z,99.99
2017-08-31T07:39:15.703Z,99.99
2017-08-31T07:40:15.677Z,99.99
2017-08-31T07:41:15.663Z,99.77
2017-08-31T07:42:15.633Z,99.99
2017-08-31T07:43:15.615Z,99.99
2017-08-31T07:44:15.586Z,99.99
2017-08-31T07:45:15.571Z,99.87
2017-08-31T07:46:15.550Z,99.87
2017-08-31T07:47:15.561Z,99.72
2017-08-31T07:48:15.514Z,99.99
2017-08-31T07:49:15.485Z,99.72
2017-08-31T07:50:15.468Z,99.72
2017-08-31T07:51:15.442Z,99.99
2017-08-31T07:52:15.435Z,99.99
2017-08-31T07:53:15.406Z,99.72
2017-08-31T07:54:15.380Z,99.91
2017-08-31T07:55:15.370Z,99.53
2017-08-31T07:56:15.036Z,99.53
2017-08-31T07:57:15.019Z,99.72
2017-08-31T07:58:15.302Z,99.34
2017-08-31T07:59:15.282Z,99.58
2017-08-31T08:00:15.007Z,99.48
2017-08-31T08:01:15.240Z,99.29
2017-08-31T08:02:15.231Z,99.19
2017-08-31T08:03:14.920Z,99.48
2017-08-31T08:04:15.182Z,99.1
2017-08-31T08:05:15.161Z,99.1
2017-08-31T08:06:14.835Z,99.1
2017-08-31T08:07:15.123Z,99.01
2017-08-31T08:08:14.800Z,99.39
2017-08-31T08:09:14.772Z,99.39
2017-08-31T08:10:14.748Z,99.19
2017-08-31T08:11:15.043Z,99.39
2017-08-31T08:12:14.712Z,99.39
2017-08-31T08:13:14.995Z,99.39
2017-08-31T08:14:14.673Z,99.19
2017-08-31T08:15:15.006Z,99.39
2017-08-31T08:16:14.629Z,98.62
2017-08-31T08:17:14.613Z,98.62
2017-08-31T08:18:14.600Z,98.72
2017-08-31T08:19:14.573Z,98.81
2017-08-31T08:20:14.589Z,98.81
2017-08-31T08:21:14.832Z,98.38
2017-08-31T08:22:14.506Z,98.43
2017-08-31T08:23:14.482Z,98.33
2017-08-31T08:24:14.772Z,98.62
2017-08-31T08:25:14.498Z,98.62
2017-08-31T08:26:14.437Z,98.24
2017-08-31T08:27:14.402Z,98.62
2017-08-31T08:28:14.390Z,98.24
2017-08-31T08:29:14.359Z,98.14
2017-08-31T08:30:14.390Z,98.62
2017-08-31T08:31:14.321Z,98.62
2017-08-31T08:32:14.607Z,98.62
2017-08-31T08:33:14.595Z,98.52
2017-08-31T08:34:14.264Z,97.95
2017-08-31T08:35:14.551Z,98.14
2017-08-31T08:36:14.528Z,98.19
2017-08-31T08:37:14.510Z,98.57
2017-08-31T08:38:14.232Z,98.43
2017-08-31T08:39:14.154Z,98.62
2017-08-31T08:40:14.442Z,98.57
2017-08-31T08:41:14.426Z,98.38
2017-08-31T08:42:14.094Z,98.38
2017-08-31T08:43:14.070Z,98.62
2017-08-31T08:44:14.050Z,98.38
2017-08-31T08:45:14.025Z,98.19
2017-08-31T08:46:14.015Z,98.33
2017-08-31T08:47:14.002Z,98.38
2017-08-31T08:48:13.976Z,98.28
2017-08-31T08:49:14.256Z,98.43
2017-08-31T08:50:13.926Z,98.1
2017-08-31T08:51:14.221Z,98.38
2017-08-31T08:52:13.884Z,98.47
2017-08-31T08:53:13.866Z,98.57
2017-08-31T08:54:14.149Z,98.38
2017-08-31T08:55:13.822Z,98.67
2017-08-31T08:56:13.803Z,98.28
2017-08-31T08:57:14.085Z,98.52
2017-08-31T08:58:13.778Z,98.24
2017-08-31T08:59:13.736Z,98.14
2017-08-31T09:00:13.718Z,98.14
2017-08-31T09:01:14.001Z,98.14
2017-08-31T09:02:13.990Z,97.56
2017-08-31T09:03:13.652Z,98.05
2017-08-31T09:04:13.994Z,97.66
2017-08-31T09:05:13.620Z,98.14
2017-08-31T09:06:13.610Z,97.85
2017-08-31T09:07:13.886Z,97.47
2017-08-31T09:08:13.861Z,96.99
2017-08-31T09:09:13.533Z,98.14
2017-08-31T09:10:13.876Z,97.47
2017-08-31T09:11:13.805Z,98.14
2017-08-31T09:12:13.474Z,98.05
2017-08-31T09:13:13.762Z,97.47
2017-08-31T09:14:13.438Z,97.42
2017-08-31T09:15:13.410Z,97.14
2017-08-31T09:16:13.395Z,97.23
2017-08-31T09:17:13.688Z,97.71
2017-08-31T09:18:13.350Z,97.23
2017-08-31T09:19:13.329Z,96.75
2017-08-31T09:20:13.313Z,97.09
2017-08-31T09:21:13.900Z,96.85
2017-08-31T09:22:13.576Z,96.8
2017-08-31T09:23:13.561Z,96.61
2017-08-31T09:24:13.230Z,96.7
2017-08-31T09:25:13.517Z,96.85
2017-08-31T09:26:13.494Z,96.13
2017-08-31T09:27:13.476Z,96.32
2017-08-31T09:28:13.458Z,96.7
2017-08-31T09:29:13.131Z,96.32
2017-08-31T09:30:13.107Z,95.94
2017-08-31T09:31:13.109Z,96.03
2017-08-31T09:32:13.072Z,96.13
2017-08-31T09:33:13.357Z,96.13
2017-08-31T09:34:13.032Z,96.13
2017-08-31T09:35:13.014Z,96.13
2017-08-31T09:36:13.301Z,96.51
2017-08-31T09:37:13.281Z,96.13
2017-08-31T09:38:13.255Z,96.13
2017-08-31T09:39:12.938Z,95.55
2017-08-31T09:40:12.905Z,96.03
2017-08-31T09:41:13.195Z,95.75
2017-08-31T09:42:12.874Z,95.75
2017-08-31T09:43:12.852Z,96.42
2017-08-31T09:44:12.836Z,96.42
2017-08-31T09:45:12.811Z,96.22
2017-08-31T09:46:13.096Z,95.65
2017-08-31T09:47:12.775Z,94.98
2017-08-31T09:48:12.757Z,95.46
2017-08-31T09:49:12.806Z,94.98
2017-08-31T09:50:13.017Z,95.07
2017-08-31T09:51:12.998Z,95.46
2017-08-31T09:52:12.671Z,95.31
2017-08-31T09:53:12.981Z,95.7
2017-08-31T09:54:12.636Z,95.26
2017-08-31T09:55:12.932Z,94.88
2017-08-31T09:56:12.608Z,93.87
2017-08-31T09:57:12.880Z,93.68
2017-08-31T09:58:12.563Z,93.39
2017-08-31T09:59:12.548Z,93.58
2017-08-31T10:00:12.521Z,93.68
2017-08-31T10:01:12.499Z,92.86
2017-08-31T10:02:12.787Z,93.25
2017-08-31T10:03:12.465Z,93.63
2017-08-31T10:04:12.761Z,93.73
2017-08-31T10:05:12.731Z,93.97
2017-08-31T10:06:12.710Z,93.77
2017-08-31T10:07:12.385Z,94.54
2017-08-31T10:08:12.667Z,94.49
2017-08-31T10:09:12.400Z,94.21
2017-08-31T10:10:12.325Z,94.88
2017-08-31T10:11:12.310Z,94.74
2017-08-31T10:12:12.599Z,94.84
2017-08-31T10:13:12.271Z,94.26
2017-08-31T10:14:12.550Z,95.12
2017-08-31T10:15:12.533Z,95.31
2017-08-31T10:16:12.209Z,95.12
2017-08-31T10:17:12.496Z,95.03
2017-08-31T10:18:12.167Z,95.89
2017-08-31T10:19:12.150Z,95.03
2017-08-31T10:20:12.438Z,95.89
2017-08-31T10:21:12.461Z,95.21
2017-08-31T10:22:12.092Z,95.21
2017-08-31T10:23:12.382Z,95.21
2017-08-31T10:24:12.350Z,95.12
2017-08-31T10:25:12.334Z,95.51
2017-08-31T10:26:12.003Z,95.41
2017-08-31T10:27:12.302Z,95.12
2017-08-31T10:28:12.271Z,95.03
2017-08-31T10:29:12.262Z,94.69
2017-08-31T10:30:12.241Z,95.26
2017-08-31T10:31:11.906Z,94.49
2017-08-31T10:32:12.200Z,94.31
2017-08-31T10:33:12.177Z,93.97
2017-08-31T10:34:11.861Z,93.97
2017-08-31T10:35:12.139Z,93.49
2017-08-31T10:36:12.140Z,93.77
2017-08-31T10:37:12.104Z,93.3
2017-08-31T10:38:11.769Z,93.05
2017-08-31T10:39:11.755Z,93.15
2017-08-31T10:40:12.036Z,92.57
2017-08-31T10:41:12.020Z,92.57
2017-08-31T10:42:12.001Z,92.62
2017-08-31T10:43:11.675Z,92.14
2017-08-31T10:44:11.962Z,91.47
2017-08-31T10:45:11.639Z,92.09
2017-08-31T10:46:11.915Z,90.45
2017-08-31T10:47:11.908Z,90.84
2017-08-31T10:48:11.889Z,89.98
2017-08-31T10:49:11.562Z,90.12
2017-08-31T10:50:11.902Z,90.22
2017-08-31T10:51:11.833Z,90.7
2017-08-31T10:52:11.816Z,90.84
2017-08-31T10:53:11.488Z,91.04
2017-08-31T10:54:11.772Z,91.71
2017-08-31T10:55:11.450Z,90.46
2017-08-31T10:56:11.735Z,90.84
2017-08-31T10:57:11.740Z,90.75
2017-08-31T10:58:11.701Z,90.84
2017-08-31T10:59:11.376Z,90.46
2017-08-31T11:00:11.466Z,91.04
2017-08-31T11:01:11.747Z,90.89
2017-08-31T11:02:11.318Z,90.7
2017-08-31T11:03:11.602Z,90.22
2017-08-31T11:04:11.283Z,90.12
2017-08-31T11:05:11.565Z,90.51
2017-08-31T11:06:11.252Z,90.27
2017-08-31T11:07:11.219Z,90.22
2017-08-31T11:08:11.205Z,90.84
2017-08-31T11:09:11.191Z,91.23
2017-08-31T11:10:11.169Z,91.04
2017-08-31T11:11:11.147Z,90.84
2017-08-31T11:12:11.536Z,90.75
2017-08-31T11:13:11.411Z,90.27
2017-08-31T11:14:11.400Z,90.17
2017-08-31T11:15:11.125Z,89.94
2017-08-31T11:16:11.558Z,90.8
2017-08-31T11:17:11.042Z,90.99
2017-08-31T11:18:11.324Z,91.09
2017-08-31T11:19:11.455Z,91.38
2017-08-31T11:20:11.279Z,91.47
2017-08-31T11:21:10.959Z,91.19
2017-08-31T11:22:10.932Z,90.8
2017-08-31T11:23:10.914Z,90.94
2017-08-31T11:24:11.213Z,90.84
2017-08-31T11:25:10.880Z,91.23
2017-08-31T11:26:10.855Z,90.27
2017-08-31T11:27:11.308Z,90.08
2017-08-31T11:28:11.376Z,90.08
2017-08-31T11:29:11.408Z,90.27
2017-08-31T11:30:11.254Z,90.37
2017-08-31T11:31:11.322Z,90.37
2017-08-31T11:32:11.292Z,89.89
2017-08-31T11:33:11.311Z,90.46
2017-08-31T11:34:10.728Z,90.08
2017-08-31T11:35:10.992Z,90.17
2017-08-31T11:36:11.286Z,90.08
2017-08-31T11:37:11.126Z,90.37
2017-08-31T11:38:10.925Z,89.26
2017-08-31T11:39:10.914Z,88.87
2017-08-31T11:40:10.891Z,88.73
2017-08-31T11:41:10.868Z,89.31
2017-08-31T11:42:10.865Z,90.08
2017-08-31T11:43:10.833Z,90.08
2017-08-31T11:44:10.816Z,90.52
2017-08-31T11:45:10.793Z,91.09
2017-08-31T11:46:10.790Z,92.14
2017-08-31T11:47:10.785Z,91.96
2017-08-31T11:48:10.738Z,92.05
2017-08-31T11:49:10.711Z,92.05
2017-08-31T11:50:10.700Z,91.66
2017-08-31T11:51:10.672Z,92.05
2017-08-31T11:52:10.669Z,91.86
2017-08-31T11:53:10.637Z,92.05
2017-08-31T11:54:10.303Z,91.96
2017-08-31T11:55:10.752Z,92.05
2017-08-31T11:56:10.585Z,91.96
2017-08-31T11:57:10.555Z,92.29
2017-08-31T11:58:10.538Z,91.42
2017-08-31T11:59:10.616Z,91.33
2017-08-31T12:00:10.495Z,90.84
2017-08-31T12:01:10.487Z,90.51
2017-08-31T12:02:10.463Z,90.99
2017-08-31T12:03:10.500Z,90.31
2017-08-31T12:04:10.424Z,90.7
2017-08-31T12:05:10.651Z,90.12
2017-08-31T12:06:10.393Z,90.56
2017-08-31T12:07:10.368Z,90.75
2017-08-31T12:08:10.346Z,92.05
2017-08-31T12:09:10.322Z,93.01
2017-08-31T12:10:10.315Z,93.82
2017-08-31T12:11:09.985Z,93.92
2017-08-31T12:12:10.265Z,93.97
2017-08-31T12:13:10.250Z,94.74
2017-08-31T12:14:10.384Z,95.26
2017-08-31T12:15:10.207Z,95.22
2017-08-31T12:16:10.288Z,94.93
2017-08-31T12:17:10.215Z,95.79
2017-08-31T12:18:10.145Z,95.6
2017-08-31T12:19:10.316Z,95.75
2017-08-31T12:20:10.102Z,96.03
2017-08-31T12:21:10.236Z,96.37
2017-08-31T12:22:10.089Z,95.94
2017-08-31T12:23:10.143Z,96.13
2017-08-31T12:24:09.769Z,96.42
2017-08-31T12:25:09.998Z,96.22
2017-08-31T12:26:09.979Z,96.42
2017-08-31T12:27:09.654Z,96.7
2017-08-31T12:28:09.935Z,96.32
2017-08-31T12:29:09.919Z,96.32
2017-08-31T12:30:09.905Z,96.61
2017-08-31T12:31:09.670Z,96.42
2017-08-31T12:32:09.883Z,96.51
2017-08-31T12:33:09.839Z,96.27
2017-08-31T12:34:09.824Z,96.47
2017-08-31T12:35:09.893Z,96.37
2017-08-31T12:36:09.784Z,96.18
2017-08-31T12:37:09.762Z,95.84
2017-08-31T12:38:09.831Z,96.03
2017-08-31T12:39:09.710Z,96.22
2017-08-31T12:40:09.696Z,95.94
2017-08-31T12:41:09.669Z,96.13
2017-08-31T12:42:09.650Z,95.56
2017-08-31T12:43:09.836Z,95.46
2017-08-31T12:44:09.611Z,95.98
2017-08-31T12:45:09.588Z,95.31
2017-08-31T12:46:09.571Z,95.12
2017-08-31T12:47:09.546Z,95.51
2017-08-31T12:48:09.529Z,95.46
2017-08-31T12:49:09.557Z,95.03
2017-08-31T12:50:09.492Z,94.98
2017-08-31T12:51:09.469Z,95.46
2017-08-31T12:52:09.455Z,94.98
2017-08-31T12:53:09.430Z,94.69
2017-08-31T12:54:09.422Z,94.98
2017-08-31T12:55:09.397Z,94.35